createdAt,value
2023-03-26T00:01:21.912Z,96567.41
2023-03-26T00:03:59.349Z,96569.94
2023-03-26T00:06:43.301Z,96579.66
2023-03-26T00:09:13.782Z,96574.31
2023-03-26T00:11:41.012Z,96577.53
2023-03-26T00:14:09.790Z,96564.03
2023-03-26T00:16:37.900Z,96568.31
2023-03-26T00:19:13.896Z,96577.53
2023-03-26T00:21:42.180Z,96567.03
2023-03-26T00:24:15.924Z,96564.72
2023-03-26T00:26:43.072Z,96573.84
2023-03-26T00:29:12.348Z,96567.66
2023-03-26T00:31:46.780Z,96555.56
2023-03-26T00:34:16.037Z,96546.00
2023-03-26T00:36:44.086Z,96541.72
2023-03-26T00:39:11.164Z,96547.28
2023-03-26T00:41:43.338Z,96545.94
2023-03-26T00:44:13.987Z,96555.16
2023-03-26T00:46:41.351Z,96551.59
2023-03-26T00:49:11.325Z,96569.75
2023-03-26T00:51:39.780Z,96581.31
2023-03-26T00:54:11.933Z,96583.63
2023-03-26T00:56:45.207Z,96585.94
2023-03-26T00:59:18.095Z,96575.00
2023-03-26T01:07:46.732Z,96601.66
2023-03-26T01:10:19.490Z,96605.81
2023-03-26T01:19:27.008Z,96590.16
2023-03-26T01:25:06.122Z,96599.84
2023-03-26T01:27:43.476Z,96607.91
2023-03-26T01:30:39.417Z,96607.91
2023-03-26T01:33:22.079Z,96616.44
2023-03-26T01:39:25.747Z,96606.44
2023-03-26T01:42:09.020Z,96602.00
2023-03-26T01:45:03.003Z,96587.31
2023-03-26T01:47:45.033Z,96605.03
2023-03-26T01:50:24.803Z,96610.28
2023-03-26T01:53:07.106Z,96611.09
2023-03-26T01:59:48.600Z,96614.44
2023-03-26T02:02:44.410Z,96615.41
2023-03-26T02:06:02.360Z,96604.50
2023-03-26T02:09:00.280Z,96602.00
2023-03-26T02:11:35.476Z,96616.16
2023-03-26T02:14:08.039Z,96610.06
2023-03-26T02:16:38.792Z,96611.19
2023-03-26T02:19:16.178Z,96626.66
2023-03-26T02:21:49.845Z,96617.78
2023-03-26T02:24:20.681Z,96618.59
2023-03-26T02:27:05.113Z,96622.75
2023-03-26T02:29:38.265Z,96617.78
2023-03-26T02:32:07.321Z,96615.25
2023-03-26T02:37:47.561Z,96613.06
2023-03-26T02:40:25.538Z,96625.69
2023-03-26T02:43:07.892Z,96621.41
2023-03-26T02:45:35.976Z,96630.56
2023-03-26T02:48:05.374Z,96630.88
2023-03-26T02:50:37.274Z,96632.81
2023-03-26T02:53:10.338Z,96635.91
2023-03-26T02:56:37.160Z,96632.28
2023-03-26T03:02:25.836Z,96646.94
2023-03-26T03:04:56.539Z,96646.28
2023-03-26T03:07:41.922Z,96646.66
2023-03-26T03:10:13.383Z,96644.72
2023-03-26T03:12:43.279Z,96654.25
2023-03-26T03:15:11.307Z,96649.97
2023-03-26T03:17:44.784Z,96657.41
2023-03-26T03:20:12.687Z,96652.44
2023-03-26T03:22:46.274Z,96656.06
2023-03-26T03:25:17.792Z,96652.44
2023-03-26T03:27:45.975Z,96658.22
2023-03-26T03:30:19.854Z,96666.28
2023-03-26T03:32:47.882Z,96661.03
2023-03-26T03:35:18.983Z,96667.63
2023-03-26T03:37:47.395Z,96667.22
2023-03-26T03:40:23.707Z,96670.69
2023-03-26T03:43:40.854Z,96669.84
2023-03-26T03:45:50.486Z,96656.19
2023-03-26T03:48:21.247Z,96668.06
2023-03-26T03:53:37.491Z,96658.38
2023-03-26T03:56:10.699Z,96667.63
2023-03-26T03:58:42.996Z,96669.44
2023-03-26T04:01:11.430Z,96671.72
2023-03-26T04:03:42.013Z,96679.25
2023-03-26T04:06:11.199Z,96669.34
2023-03-26T04:08:38.494Z,96678.22
2023-03-26T04:11:06.104Z,96687.09
2023-03-26T04:13:34.925Z,96682.41
2023-03-26T04:16:28.878Z,96680.75
2023-03-26T04:18:58.212Z,96672.41
2023-03-26T04:21:26.392Z,96672.63
2023-03-26T04:23:54.388Z,96685.09
2023-03-26T04:26:21.247Z,96670.44
2023-03-26T04:28:57.443Z,96666.94
2023-03-26T04:31:29.528Z,96657.56
2023-03-26T04:34:28.137Z,96661.16
2023-03-26T04:36:55.214Z,96663.38
2023-03-26T04:39:22.238Z,96668.63
2023-03-26T04:41:55.639Z,96684.28
2023-03-26T04:44:25.223Z,96687.28
2023-03-26T04:46:55.669Z,96708.38
2023-03-26T04:49:25.163Z,96708.91
2023-03-26T04:51:52.690Z,96711.94
2023-03-26T04:54:28.253Z,96714.38
2023-03-26T04:57:03.154Z,96719.81
2023-03-26T04:59:35.224Z,96720.56
2023-03-26T05:02:05.221Z,96726.84
2023-03-26T05:04:34.818Z,96715.00
2023-03-26T05:07:02.581Z,96726.94
2023-03-26T05:09:32.828Z,96729.94
2023-03-26T05:12:02.986Z,96726.94
2023-03-26T05:14:30.230Z,96731.00
2023-03-26T05:16:59.922Z,96741.16
2023-03-26T05:19:35.069Z,96737.34
2023-03-26T05:22:02.595Z,96746.00
2023-03-26T05:24:29.235Z,96756.50
2023-03-26T05:27:05.461Z,96769.56
2023-03-26T05:29:44.226Z,96760.00
2023-03-26T05:32:14.613Z,96773.97
2023-03-26T05:34:41.903Z,96762.72
2023-03-26T05:37:12.036Z,96762.44
2023-03-26T05:39:39.959Z,96774.63
2023-03-26T05:42:08.979Z,96770.72
2023-03-26T05:44:36.324Z,96773.94
2023-03-26T05:47:04.264Z,96775.88
2023-03-26T05:49:32.287Z,96772.00
2023-03-26T05:52:02.467Z,96767.41
2023-03-26T05:57:18.996Z,96762.66
2023-03-26T05:59:49.771Z,96761.56
2023-03-26T06:02:17.005Z,96750.69
2023-03-26T06:05:18.892Z,96762.56
2023-03-26T06:07:44.467Z,96763.13
2023-03-26T06:10:17.907Z,96760.22
2023-03-26T06:13:25.715Z,96759.28
2023-03-26T06:16:01.083Z,96768.50
2023-03-26T06:18:45.059Z,96764.16
2023-03-26T06:21:56.835Z,96748.63
2023-03-26T06:24:34.472Z,96739.72
2023-03-26T06:27:04.537Z,96735.38
2023-03-26T06:29:45.966Z,96730.66
2023-03-26T06:32:21.421Z,96741.94
2023-03-26T06:34:48.251Z,96726.19
2023-03-26T06:37:19.261Z,96724.25
2023-03-26T06:40:06.788Z,96730.78
2023-03-26T06:46:03.438Z,96732.63
2023-03-26T06:48:30.913Z,96742.03
2023-03-26T06:50:58.727Z,96742.38
2023-03-26T06:53:31.023Z,96734.69
2023-03-26T06:55:57.758Z,96727.25
2023-03-26T06:58:27.840Z,96738.16
2023-03-26T07:01:00.000Z,96747.72
2023-03-26T07:03:33.433Z,96733.56
2023-03-26T07:06:23.089Z,96738.38
2023-03-26T07:08:50.279Z,96745.13
2023-03-26T07:11:25.606Z,96751.38
2023-03-26T07:13:52.714Z,96744.78
2023-03-26T07:16:19.786Z,96760.81
2023-03-26T07:18:46.735Z,96763.94
2023-03-26T07:21:20.175Z,96763.94
2023-03-26T07:23:48.211Z,96751.00
2023-03-26T07:26:55.896Z,96755.91
2023-03-26T07:29:59.145Z,96756.63
2023-03-26T07:32:43.583Z,96739.97
2023-03-26T07:35:34.104Z,96738.94
2023-03-26T07:38:33.480Z,96732.06
2023-03-26T07:41:43.695Z,96734.22
2023-03-26T07:45:09.146Z,96728.13
2023-03-26T07:47:36.966Z,96729.97
2023-03-26T07:50:24.666Z,96728.88
2023-03-26T07:53:26.337Z,96730.66
2023-03-26T07:55:53.058Z,96732.91
2023-03-26T07:58:27.133Z,96727.88
2023-03-26T08:01:22.565Z,96721.72
2023-03-26T08:04:23.657Z,96733.38
2023-03-26T08:08:23.632Z,96709.91
2023-03-26T08:11:45.194Z,96734.88
2023-03-26T08:14:35.598Z,96715.09
2023-03-26T08:24:01.629Z,96718.16
2023-03-26T08:27:36.997Z,96719.47
2023-03-26T08:30:45.934Z,96721.25
2023-03-26T08:36:56.298Z,96721.13
2023-03-26T08:46:11.686Z,96697.84
2023-03-26T08:49:19.156Z,96724.28
2023-03-26T08:52:41.967Z,96715.25
2023-03-26T08:55:33.328Z,96725.59
2023-03-26T08:58:48.801Z,96721.22
2023-03-26T09:01:36.594Z,96706.56
2023-03-26T09:04:12.791Z,96721.25
2023-03-26T09:07:38.071Z,96713.38
2023-03-26T09:10:53.780Z,96711.00
2023-03-26T09:14:12.768Z,96716.97
2023-03-26T09:17:14.309Z,96717.22
2023-03-26T09:19:56.852Z,96701.97
2023-03-26T09:22:44.866Z,96703.91
2023-03-26T09:25:34.697Z,96717.34
2023-03-26T09:32:04.726Z,96707.69
2023-03-26T09:34:52.004Z,96686.16
2023-03-26T09:37:21.921Z,96697.31
2023-03-26T09:40:11.385Z,96700.81
2023-03-26T09:42:47.443Z,96687.63
2023-03-26T09:45:29.454Z,96694.66
2023-03-26T09:48:16.201Z,96686.59
2023-03-26T09:50:57.840Z,96682.50
2023-03-26T09:53:37.468Z,96690.56
2023-03-26T09:56:32.526Z,96685.78
2023-03-26T09:59:06.654Z,96687.69
2023-03-26T10:02:04.631Z,96681.53
2023-03-26T10:04:50.301Z,96679.38
2023-03-26T10:07:42.451Z,96690.13
2023-03-26T10:10:24.800Z,96680.41
2023-03-26T10:13:11.677Z,96689.97
2023-03-26T10:16:04.678Z,96678.47
2023-03-26T10:18:49.230Z,96686.13
2023-03-26T10:21:40.396Z,96689.75
2023-03-26T10:24:28.743Z,96677.81
2023-03-26T10:27:36.581Z,96666.72
2023-03-26T10:30:16.504Z,96671.09
2023-03-26T10:32:58.851Z,96667.81
2023-03-26T10:35:34.479Z,96650.00
2023-03-26T10:39:00.013Z,96654.28
2023-03-26T10:41:58.925Z,96631.28
2023-03-26T10:44:33.454Z,96640.56
2023-03-26T10:47:15.630Z,96639.28
2023-03-26T10:50:03.193Z,96623.97
2023-03-26T10:52:39.322Z,96614.50
2023-03-26T10:55:18.547Z,96618.56
2023-03-26T10:57:56.324Z,96610.34
2023-03-26T11:00:31.967Z,96609.75
2023-03-26T11:03:23.206Z,96610.78
2023-03-26T11:06:19.509Z,96619.47
2023-03-26T11:09:31.311Z,96610.59
2023-03-26T11:12:26.826Z,96589.22
2023-03-26T11:15:18.312Z,96600.56
2023-03-26T11:18:24.051Z,96585.16
2023-03-26T11:21:30.289Z,96567.31
2023-03-26T11:24:38.469Z,96585.31
2023-03-26T11:27:26.205Z,96577.53
2023-03-26T11:30:11.850Z,96585.00
2023-03-26T11:33:08.904Z,96590.38
2023-03-26T11:35:40.701Z,96584.22
2023-03-26T11:38:50.544Z,96570.97
2023-03-26T11:41:34.176Z,96563.84
2023-03-26T11:44:24.810Z,96570.94
2023-03-26T11:47:16.306Z,96560.44
2023-03-26T11:50:05.945Z,96563.69
2023-03-26T11:52:33.413Z,96559.06
2023-03-26T11:55:01.518Z,96554.88
2023-03-26T11:57:37.551Z,96555.81
2023-03-26T12:00:19.093Z,96546.06
2023-03-26T12:02:52.432Z,96541.56
2023-03-26T12:05:43.972Z,96542.13
2023-03-26T12:08:33.129Z,96539.94
2023-03-26T12:11:53.828Z,96540.38
2023-03-26T12:14:34.898Z,96547.00
2023-03-26T12:17:02.610Z,96531.91
2023-03-26T12:19:40.674Z,96537.44
2023-03-26T12:22:30.881Z,96544.28
2023-03-26T12:25:18.961Z,96536.59
2023-03-26T12:27:46.916Z,96530.22
2023-03-26T12:30:22.639Z,96530.38
2023-03-26T12:33:02.669Z,96529.59
2023-03-26T12:39:16.826Z,96532.06
2023-03-26T12:45:00.348Z,96518.88
2023-03-26T12:48:00.105Z,96526.28
2023-03-26T12:50:18.051Z,96523.66
2023-03-26T12:53:20.118Z,96512.38
2023-03-26T12:56:07.970Z,96520.38
2023-03-26T12:58:52.058Z,96530.34
2023-03-26T13:01:18.656Z,96526.66
2023-03-26T13:03:45.423Z,96526.63
2023-03-26T13:06:21.741Z,96528.78
2023-03-26T13:09:12.496Z,96535.94
2023-03-26T13:11:46.310Z,96524.63
2023-03-26T13:14:12.943Z,96533.91
2023-03-26T13:17:16.084Z,96516.38
2023-03-26T13:20:12.771Z,96505.78
2023-03-26T13:22:56.174Z,96503.78
2023-03-26T13:25:29.141Z,96507.47
2023-03-26T13:28:14.356Z,96502.97
2023-03-26T13:30:47.136Z,96507.00
2023-03-26T13:33:26.747Z,96511.25
2023-03-26T13:36:23.125Z,96507.03
2023-03-26T13:39:04.587Z,96504.78
2023-03-26T13:41:40.631Z,96507.44
2023-03-26T13:47:01.042Z,96502.28
2023-03-26T13:49:53.707Z,96524.34
2023-03-26T13:52:56.608Z,96511.25
2023-03-26T13:55:50.441Z,96516.84
2023-03-26T13:58:21.897Z,96519.47
2023-03-26T14:01:17.007Z,96525.09
2023-03-26T14:04:13.416Z,96520.84
2023-03-26T14:06:53.282Z,96528.03
2023-03-26T14:09:23.174Z,96526.38
2023-03-26T14:12:27.318Z,96529.22
2023-03-26T14:14:58.185Z,96524.44
2023-03-26T14:17:34.826Z,96529.78
2023-03-26T14:20:13.146Z,96540.00
2023-03-26T14:23:01.001Z,96540.22
2023-03-26T14:25:41.779Z,96529.38
2023-03-26T14:28:30.193Z,96527.31
2023-03-26T14:31:04.895Z,96524.06
2023-03-26T14:33:42.767Z,96522.19
2023-03-26T14:36:49.297Z,96507.03
2023-03-26T14:40:00.491Z,96520.53
2023-03-26T14:43:00.478Z,96514.59
2023-03-26T14:46:11.970Z,96510.56
2023-03-26T14:48:51.399Z,96511.25
2023-03-26T14:51:37.530Z,96504.69
2023-03-26T14:54:15.854Z,96504.22
2023-03-26T14:57:09.869Z,96502.53
2023-03-26T15:00:07.856Z,96508.25
2023-03-26T15:06:20.967Z,96495.94
2023-03-26T15:09:07.514Z,96495.59
2023-03-26T15:11:44.343Z,96494.19
2023-03-26T15:14:30.043Z,96503.94
2023-03-26T15:17:21.379Z,96503.25
2023-03-26T15:20:15.115Z,96493.09
2023-03-26T15:23:00.608Z,96495.00
2023-03-26T15:25:45.511Z,96503.88
2023-03-26T15:28:37.254Z,96488.34
2023-03-26T15:34:24.193Z,96502.34
2023-03-26T15:37:01.262Z,96498.66
2023-03-26T15:40:10.785Z,96495.69
2023-03-26T15:43:31.624Z,96506.78
2023-03-26T15:46:07.576Z,96513.44
2023-03-26T15:48:34.835Z,96515.56
2023-03-26T15:51:21.126Z,96511.69
2023-03-26T15:54:07.065Z,96520.44
2023-03-26T15:56:46.531Z,96523.28
2023-03-26T15:59:35.364Z,96522.78
2023-03-26T16:02:30.636Z,96512.78
2023-03-26T16:05:17.466Z,96520.13
2023-03-26T16:08:08.351Z,96526.25
2023-03-26T16:10:47.778Z,96520.81
2023-03-26T16:13:20.252Z,96521.28
2023-03-26T16:15:53.396Z,96532.69
2023-03-26T16:18:48.133Z,96534.75
2023-03-26T16:21:31.825Z,96537.81
2023-03-26T16:24:09.255Z,96532.78
2023-03-26T16:26:51.830Z,96542.28
2023-03-26T16:29:27.566Z,96527.81
2023-03-26T16:32:00.930Z,96536.25
2023-03-26T16:34:50.590Z,96541.66
2023-03-26T16:37:32.285Z,96536.53
2023-03-26T16:40:22.280Z,96546.88
2023-03-26T16:43:16.321Z,96542.22
2023-03-26T16:45:49.478Z,96547.06
2023-03-26T16:48:26.457Z,96549.59
2023-03-26T17:00:50.028Z,96564.31
2023-03-26T17:03:58.891Z,96565.63
2023-03-26T17:06:32.865Z,96561.28
2023-03-26T17:09:17.306Z,96573.44
2023-03-26T17:12:41.461Z,96578.34
2023-03-26T17:15:11.061Z,96579.66
2023-03-26T17:17:46.781Z,96584.50
2023-03-26T17:20:43.803Z,96590.53
2023-03-26T17:23:20.509Z,96597.53
2023-03-26T17:30:05.839Z,96612.06
2023-03-26T17:51:52.402Z,96630.63
2023-03-26T17:54:06.272Z,96628.16
2023-03-26T17:57:09.886Z,96633.31
2023-03-26T17:59:48.248Z,96636.97
2023-03-26T18:05:30.330Z,96634.97
2023-03-26T18:08:21.047Z,96637.94
2023-03-26T18:14:08.518Z,96642.28
2023-03-26T18:16:59.793Z,96647.28
2023-03-26T18:19:55.480Z,96645.50
2023-03-26T18:25:37.055Z,96656.22
2023-03-26T18:28:38.926Z,96656.22
2023-03-26T18:31:28.551Z,96659.00
2023-03-26T18:34:10.136Z,96657.75
2023-03-26T18:44:36.489Z,96644.94
2023-03-26T18:47:40.237Z,96646.19
2023-03-26T18:53:51.211Z,96631.53
2023-03-26T19:03:16.682Z,96617.88
2023-03-26T19:09:46.736Z,96620.66
2023-03-26T19:13:09.687Z,96622.03
2023-03-26T19:33:37.910Z,96609.91
2023-03-26T19:36:39.151Z,96604.09
2023-03-26T19:42:46.191Z,96607.25
2023-03-26T19:48:46.219Z,96591.53
2023-03-26T19:51:48.386Z,96583.81
2023-03-26T19:57:55.891Z,96587.28
2023-03-26T20:01:13.822Z,96570.88
2023-03-26T20:03:52.517Z,96569.06
2023-03-26T20:06:30.889Z,96562.72
2023-03-26T20:13:01.121Z,96556.25
2023-03-26T20:21:59.207Z,96557.59
2023-03-26T20:24:25.207Z,96556.63
2023-03-26T20:30:45.343Z,96548.91
2023-03-26T20:37:31.100Z,96535.69
2023-03-26T20:44:05.267Z,96530.72
2023-03-26T20:47:03.051Z,96527.56
2023-03-26T20:49:59.380Z,96529.78
2023-03-26T20:52:44.608Z,96531.94
2023-03-26T20:55:16.909Z,96525.19
2023-03-26T21:00:08.434Z,96530.41
2023-03-26T21:00:48.423Z,96533.44
2023-03-26T21:07:17.619Z,96528.22
2023-03-26T21:10:09.721Z,96518.31
2023-03-26T21:13:16.567Z,96505.38
2023-03-26T21:18:49.246Z,96513.59
2023-03-26T21:21:45.896Z,96510.84
2023-03-26T21:27:39.454Z,96502.00
2023-03-26T21:34:11.062Z,96499.34
2023-03-26T21:40:31.172Z,96491.88
2023-03-26T21:46:02.590Z,96482.91
2023-03-26T21:48:29.566Z,96483.16
2023-03-26T21:51:15.921Z,96478.91
2023-03-26T21:54:21.071Z,96477.50
2023-03-26T21:57:19.454Z,96474.69
2023-03-26T21:59:52.397Z,96469.63
2023-03-26T22:03:40.185Z,96465.63
2023-03-26T22:07:16.626Z,96458.84
2023-03-26T22:16:08.601Z,96452.41
2023-03-26T22:18:46.264Z,96450.75
2023-03-26T22:21:32.061Z,96447.31
2023-03-26T22:24:53.228Z,96444.25
2023-03-26T22:30:53.519Z,96434.91
2023-03-26T22:33:27.248Z,96442.03
2023-03-26T22:36:06.233Z,96423.56
2023-03-26T22:39:00.839Z,96416.38
2023-03-26T22:44:56.803Z,96412.06
2023-03-26T22:47:44.602Z,96411.28
2023-03-26T22:50:26.503Z,96402.09
2023-03-26T22:53:34.473Z,96388.94
2023-03-26T22:59:25.492Z,96383.25
2023-03-26T23:01:59.198Z,96373.91
2023-03-26T23:04:33.503Z,96376.63
2023-03-26T23:07:12.975Z,96379.13
2023-03-26T23:10:07.473Z,96376.31
2023-03-26T23:12:35.240Z,96377.94
2023-03-26T23:15:05.886Z,96377.84
2023-03-26T23:17:43.320Z,96383.09
2023-03-26T23:20:22.687Z,96369.34
2023-03-26T23:23:00.525Z,96364.81
2023-03-26T23:26:15.696Z,96352.59
2023-03-26T23:29:21.383Z,96351.78
2023-03-26T23:34:55.297Z,96341.59
2023-03-26T23:40:13.778Z,96331.94
2023-03-26T23:42:44.356Z,96322.50
2023-03-26T23:51:30.588Z,96318.78
2023-03-26T23:54:01.509Z,96307.50
2023-03-26T23:56:30.724Z,96311.88
2023-03-26T23:59:01.804Z,96307.88
